sensor_id;sensor_type;location;lat;lon;timestamp;temperature;humidity
2024;DHT22;1016;48.770;9.154;2023-05-07T00:01:05;16.50;99.90
2024;DHT22;1016;48.770;9.154;2023-05-07T00:03:31;16.40;99.90
2024;DHT22;1016;48.770;9.154;2023-05-07T00:05:57;16.40;99.90
2024;DHT22;1016;48.770;9.154;2023-05-07T00:08:23;16.40;99.90
2024;DHT22;1016;48.770;9.154;2023-05-07T00:10:48;16.30;99.90
2024;DHT22;1016;48.770;9.154;2023-05-07T00:13:14;16.30;99.90
2024;DHT22;1016;48.770;9.154;2023-05-07T00:15:40;16.30;99.90
2024;DHT22;1016;48.770;9.154;2023-05-07T00:18:06;16.30;99.90
2024;DHT22;1016;48.770;9.154;2023-05-07T00:20:31;16.30;99.90
2024;DHT22;1016;48.770;9.154;2023-05-07T00:22:57;16.30;99.90
2024;DHT22;1016;48.770;9.154;2023-05-07T00:25:22;16.30;99.90
2024;DHT22;1016;48.770;9.154;2023-05-07T00:27:48;16.20;99.90
2024;DHT22;1016;48.770;9.154;2023-05-07T00:30:13;16.20;99.90
2024;DHT22;1016;48.770;9.154;2023-05-07T00:32:39;16.10;99.90
2024;DHT22;1016;48.770;9.154;2023-05-07T00:35:06;16.10;99.90
2024;DHT22;1016;48.770;9.154;2023-05-07T00:37:31;16.10;99.90
2024;DHT22;1016;48.770;9.154;2023-05-07T00:39:57;16.10;99.90
2024;DHT22;1016;48.770;9.154;2023-05-07T00:42:22;16.10;99.90
2024;DHT22;1016;48.770;9.154;2023-05-07T00:44:49;16.10;99.90
2024;DHT22;1016;48.770;9.154;2023-05-07T00:47:16;16.10;99.90
2024;DHT22;1016;48.770;9.154;2023-05-07T00:49:43;16.10;99.90
2024;DHT22;1016;48.770;9.154;2023-05-07T00:52:12;16.10;99.90
2024;DHT22;1016;48.770;9.154;2023-05-07T00:54:38;16.00;99.90
2024;DHT22;1016;48.770;9.154;2023-05-07T00:57:05;16.00;99.90
2024;DHT22;1016;48.770;9.154;2023-05-07T00:59:32;16.00;99.90
2024;DHT22;1016;48.770;9.154;2023-05-07T01:01:58;16.00;99.90
2024;DHT22;1016;48.770;9.154;2023-05-07T01:04:24;16.00;99.90
2024;DHT22;1016;48.770;9.154;2023-05-07T01:06:50;15.90;99.90
2024;DHT22;1016;48.770;9.154;2023-05-07T01:09:16;15.90;99.90
2024;DHT22;1016;48.770;9.154;2023-05-07T01:11:42;15.90;99.90
2024;DHT22;1016;48.770;9.154;2023-05-07T01:14:08;15.90;99.90
2024;DHT22;1016;48.770;9.154;2023-05-07T01:16:34;16.00;99.90
2024;DHT22;1016;48.770;9.154;2023-05-07T01:19:00;16.00;99.90
2024;DHT22;1016;48.770;9.154;2023-05-07T01:21:26;15.90;99.90
2024;DHT22;1016;48.770;9.154;2023-05-07T01:23:53;16.00;99.90
2024;DHT22;1016;48.770;9.154;2023-05-07T01:26:20;16.00;99.90
2024;DHT22;1016;48.770;9.154;2023-05-07T01:28:45;16.00;99.90
2024;DHT22;1016;48.770;9.154;2023-05-07T01:31:12;15.90;99.90
2024;DHT22;1016;48.770;9.154;2023-05-07T01:33:40;15.90;99.90
2024;DHT22;1016;48.770;9.154;2023-05-07T01:36:08;15.90;99.90
2024;DHT22;1016;48.770;9.154;2023-05-07T01:38:36;15.90;99.90
2024;DHT22;1016;48.770;9.154;2023-05-07T01:41:02;15.80;99.90
2024;DHT22;1016;48.770;9.154;2023-05-07T01:43:29;15.90;99.90
2024;DHT22;1016;48.770;9.154;2023-05-07T01:45:56;15.80;99.90
2024;DHT22;1016;48.770;9.154;2023-05-07T01:48:22;15.80;99.90
2024;DHT22;1016;48.770;9.154;2023-05-07T01:50:49;15.90;99.90
2024;DHT22;1016;48.770;9.154;2023-05-07T01:53:15;15.90;99.90
2024;DHT22;1016;48.770;9.154;2023-05-07T01:55:40;15.80;99.90
2024;DHT22;1016;48.770;9.154;2023-05-07T01:58:06;15.90;99.90
2024;DHT22;1016;48.770;9.154;2023-05-07T02:00:32;15.80;99.90
2024;DHT22;1016;48.770;9.154;2023-05-07T02:02:58;15.80;99.90
2024;DHT22;1016;48.770;9.154;2023-05-07T02:05:24;15.80;99.90
2024;DHT22;1016;48.770;9.154;2023-05-07T02:07:49;15.80;99.90
2024;DHT22;1016;48.770;9.154;2023-05-07T02:10:15;15.80;99.90
2024;DHT22;1016;48.770;9.154;2023-05-07T02:12:40;15.80;99.90
2024;DHT22;1016;48.770;9.154;2023-05-07T02:15:06;15.80;99.90
2024;DHT22;1016;48.770;9.154;2023-05-07T02:17:32;15.80;99.90
2024;DHT22;1016;48.770;9.154;2023-05-07T02:19:58;15.80;99.90
2024;DHT22;1016;48.770;9.154;2023-05-07T02:22:24;15.80;99.90
2024;DHT22;1016;48.770;9.154;2023-05-07T02:24:50;15.80;99.90
2024;DHT22;1016;48.770;9.154;2023-05-07T02:27:15;15.80;99.90
2024;DHT22;1016;48.770;9.154;2023-05-07T02:29:41;15.80;99.90
2024;DHT22;1016;48.770;9.154;2023-05-07T02:32:06;15.80;99.90
2024;DHT22;1016;48.770;9.154;2023-05-07T02:34:32;15.80;99.90
2024;DHT22;1016;48.770;9.154;2023-05-07T02:36:57;15.80;99.90
2024;DHT22;1016;48.770;9.154;2023-05-07T02:39:23;15.80;99.90
2024;DHT22;1016;48.770;9.154;2023-05-07T02:41:48;15.80;99.90
2024;DHT22;1016;48.770;9.154;2023-05-07T02:44:14;15.70;99.90
2024;DHT22;1016;48.770;9.154;2023-05-07T02:46:39;15.70;99.90
2024;DHT22;1016;48.770;9.154;2023-05-07T02:49:05;15.70;99.90
2024;DHT22;1016;48.770;9.154;2023-05-07T02:51:31;15.70;99.90
2024;DHT22;1016;48.770;9.154;2023-05-07T02:53:56;15.60;99.90
2024;DHT22;1016;48.770;9.154;2023-05-07T02:56:22;15.60;99.90
2024;DHT22;1016;48.770;9.154;2023-05-07T02:58:47;15.60;99.90
2024;DHT22;1016;48.770;9.154;2023-05-07T03:01:13;15.50;99.90
2024;DHT22;1016;48.770;9.154;2023-05-07T03:03:39;15.50;99.90
2024;DHT22;1016;48.770;9.154;2023-05-07T03:06:05;15.50;99.90
2024;DHT22;1016;48.770;9.154;2023-05-07T03:08:32;15.50;99.90
2024;DHT22;1016;48.770;9.154;2023-05-07T03:10:57;15.50;99.90
2024;DHT22;1016;48.770;9.154;2023-05-07T03:13:23;15.50;99.90
2024;DHT22;1016;48.770;9.154;2023-05-07T03:15:49;15.50;99.90
2024;DHT22;1016;48.770;9.154;2023-05-07T03:18:14;15.40;99.90
2024;DHT22;1016;48.770;9.154;2023-05-07T03:20:40;15.40;99.90
2024;DHT22;1016;48.770;9.154;2023-05-07T03:23:05;15.40;99.90
2024;DHT22;1016;48.770;9.154;2023-05-07T03:25:31;15.40;99.90
2024;DHT22;1016;48.770;9.154;2023-05-07T03:27:57;15.30;99.90
2024;DHT22;1016;48.770;9.154;2023-05-07T03:30:23;15.30;99.90
2024;DHT22;1016;48.770;9.154;2023-05-07T03:32:48;15.30;99.90
2024;DHT22;1016;48.770;9.154;2023-05-07T03:35:14;15.30;99.90
2024;DHT22;1016;48.770;9.154;2023-05-07T03:37:39;15.30;99.90
2024;DHT22;1016;48.770;9.154;2023-05-07T03:40:06;15.20;99.90
2024;DHT22;1016;48.770;9.154;2023-05-07T03:42:32;15.20;99.90
2024;DHT22;1016;48.770;9.154;2023-05-07T03:44:57;15.30;99.90
2024;DHT22;1016;48.770;9.154;2023-05-07T03:47:23;15.30;99.90
2024;DHT22;1016;48.770;9.154;2023-05-07T03:49:48;15.20;99.90
2024;DHT22;1016;48.770;9.154;2023-05-07T03:52:14;15.20;99.90
2024;DHT22;1016;48.770;9.154;2023-05-07T03:54:40;15.20;99.90
2024;DHT22;1016;48.770;9.154;2023-05-07T03:57:06;15.20;99.90
2024;DHT22;1016;48.770;9.154;2023-05-07T03:59:31;15.20;99.90
2024;DHT22;1016;48.770;9.154;2023-05-07T04:01:57;15.20;99.90
2024;DHT22;1016;48.770;9.154;2023-05-07T04:04:23;15.20;99.90
2024;DHT22;1016;48.770;9.154;2023-05-07T04:06:49;15.10;99.90
2024;DHT22;1016;48.770;9.154;2023-05-07T04:09:14;15.10;99.90
2024;DHT22;1016;48.770;9.154;2023-05-07T04:11:40;15.10;99.90
2024;DHT22;1016;48.770;9.154;2023-05-07T04:14:06;15.10;99.90
2024;DHT22;1016;48.770;9.154;2023-05-07T04:16:31;15.10;99.90
2024;DHT22;1016;48.770;9.154;2023-05-07T04:18:57;15.10;99.90
2024;DHT22;1016;48.770;9.154;2023-05-07T04:21:22;15.10;99.90
2024;DHT22;1016;48.770;9.154;2023-05-07T04:23:48;15.10;99.90
2024;DHT22;1016;48.770;9.154;2023-05-07T04:26:14;15.10;99.90
2024;DHT22;1016;48.770;9.154;2023-05-07T04:28:40;15.10;99.90
2024;DHT22;1016;48.770;9.154;2023-05-07T04:31:06;15.10;99.90
2024;DHT22;1016;48.770;9.154;2023-05-07T04:33:32;15.10;99.90
2024;DHT22;1016;48.770;9.154;2023-05-07T04:35:58;15.10;99.90
2024;DHT22;1016;48.770;9.154;2023-05-07T04:38:29;15.10;99.90
2024;DHT22;1016;48.770;9.154;2023-05-07T04:40:55;15.10;99.90
2024;DHT22;1016;48.770;9.154;2023-05-07T04:43:21;15.10;99.90
2024;DHT22;1016;48.770;9.154;2023-05-07T04:45:46;15.10;99.90
2024;DHT22;1016;48.770;9.154;2023-05-07T04:48:12;15.20;99.90
2024;DHT22;1016;48.770;9.154;2023-05-07T04:50:39;15.20;99.90
2024;DHT22;1016;48.770;9.154;2023-05-07T04:53:06;15.20;99.90
2024;DHT22;1016;48.770;9.154;2023-05-07T04:55:31;15.20;99.90
2024;DHT22;1016;48.770;9.154;2023-05-07T04:57:56;15.20;99.90
2024;DHT22;1016;48.770;9.154;2023-05-07T05:00:22;15.20;99.90
2024;DHT22;1016;48.770;9.154;2023-05-07T05:02:48;15.20;99.90
2024;DHT22;1016;48.770;9.154;2023-05-07T05:05:13;15.20;99.90
2024;DHT22;1016;48.770;9.154;2023-05-07T05:07:39;15.20;99.90
2024;DHT22;1016;48.770;9.154;2023-05-07T05:10:05;15.20;99.90
2024;DHT22;1016;48.770;9.154;2023-05-07T05:12:31;15.20;99.90
2024;DHT22;1016;48.770;9.154;2023-05-07T05:14:56;15.20;99.90
2024;DHT22;1016;48.770;9.154;2023-05-07T05:17:22;15.20;99.90
2024;DHT22;1016;48.770;9.154;2023-05-07T05:19:47;15.20;99.90
2024;DHT22;1016;48.770;9.154;2023-05-07T05:22:13;15.20;99.90
2024;DHT22;1016;48.770;9.154;2023-05-07T05:24:38;15.30;99.90
2024;DHT22;1016;48.770;9.154;2023-05-07T05:27:04;15.30;99.90
2024;DHT22;1016;48.770;9.154;2023-05-07T05:29:30;15.30;99.90
2024;DHT22;1016;48.770;9.154;2023-05-07T05:31:56;15.40;99.90
2024;DHT22;1016;48.770;9.154;2023-05-07T05:34:22;15.40;99.90
2024;DHT22;1016;48.770;9.154;2023-05-07T05:36:48;15.50;99.90
2024;DHT22;1016;48.770;9.154;2023-05-07T05:39:13;15.60;99.90
2024;DHT22;1016;48.770;9.154;2023-05-07T05:41:39;15.70;99.90
2024;DHT22;1016;48.770;9.154;2023-05-07T05:44:05;15.70;99.90
2024;DHT22;1016;48.770;9.154;2023-05-07T05:46:30;15.80;99.90
2024;DHT22;1016;48.770;9.154;2023-05-07T05:48:56;15.90;99.90
2024;DHT22;1016;48.770;9.154;2023-05-07T05:51:22;15.90;99.90
2024;DHT22;1016;48.770;9.154;2023-05-07T05:53:48;16.00;99.90
2024;DHT22;1016;48.770;9.154;2023-05-07T05:56:14;16.00;99.90
2024;DHT22;1016;48.770;9.154;2023-05-07T05:58:40;16.10;99.90
2024;DHT22;1016;48.770;9.154;2023-05-07T06:01:06;16.20;99.90
2024;DHT22;1016;48.770;9.154;2023-05-07T06:03:31;16.20;99.90
2024;DHT22;1016;48.770;9.154;2023-05-07T06:06:00;16.20;99.90
2024;DHT22;1016;48.770;9.154;2023-05-07T06:08:28;16.20;99.90
2024;DHT22;1016;48.770;9.154;2023-05-07T06:10:54;16.30;99.90
2024;DHT22;1016;48.770;9.154;2023-05-07T06:13:19;16.30;99.90
2024;DHT22;1016;48.770;9.154;2023-05-07T06:15:45;16.40;99.90
2024;DHT22;1016;48.770;9.154;2023-05-07T06:18:10;16.40;99.90
2024;DHT22;1016;48.770;9.154;2023-05-07T06:20:36;16.50;99.90
2024;DHT22;1016;48.770;9.154;2023-05-07T06:23:01;16.60;99.90
2024;DHT22;1016;48.770;9.154;2023-05-07T06:25:27;16.60;99.90
2024;DHT22;1016;48.770;9.154;2023-05-07T06:27:52;16.70;99.90
2024;DHT22;1016;48.770;9.154;2023-05-07T06:30:18;16.70;99.90
2024;DHT22;1016;48.770;9.154;2023-05-07T06:32:43;16.70;99.90
2024;DHT22;1016;48.770;9.154;2023-05-07T06:35:09;16.70;99.90
2024;DHT22;1016;48.770;9.154;2023-05-07T06:37:35;16.70;99.90
2024;DHT22;1016;48.770;9.154;2023-05-07T06:40:00;16.60;99.90
2024;DHT22;1016;48.770;9.154;2023-05-07T06:42:26;16.70;99.90
2024;DHT22;1016;48.770;9.154;2023-05-07T06:44:51;16.70;99.90
2024;DHT22;1016;48.770;9.154;2023-05-07T06:47:17;16.70;99.90
2024;DHT22;1016;48.770;9.154;2023-05-07T06:49:43;16.70;99.90
2024;DHT22;1016;48.770;9.154;2023-05-07T06:52:08;16.80;99.90
2024;DHT22;1016;48.770;9.154;2023-05-07T06:54:34;16.80;99.90
2024;DHT22;1016;48.770;9.154;2023-05-07T06:56:59;16.90;99.90
2024;DHT22;1016;48.770;9.154;2023-05-07T06:59:25;17.00;99.90
2024;DHT22;1016;48.770;9.154;2023-05-07T07:01:51;17.00;99.90
2024;DHT22;1016;48.770;9.154;2023-05-07T07:04:16;17.10;99.90
2024;DHT22;1016;48.770;9.154;2023-05-07T07:06:42;17.10;99.90
2024;DHT22;1016;48.770;9.154;2023-05-07T07:09:07;17.20;99.90
2024;DHT22;1016;48.770;9.154;2023-05-07T07:11:33;17.30;99.90
2024;DHT22;1016;48.770;9.154;2023-05-07T07:13:59;17.30;99.90
2024;DHT22;1016;48.770;9.154;2023-05-07T07:16:24;17.40;99.90
2024;DHT22;1016;48.770;9.154;2023-05-07T07:18:50;17.40;99.90
2024;DHT22;1016;48.770;9.154;2023-05-07T07:21:16;17.50;99.90
2024;DHT22;1016;48.770;9.154;2023-05-07T07:23:41;17.60;99.90
2024;DHT22;1016;48.770;9.154;2023-05-07T07:26:07;17.60;99.90
2024;DHT22;1016;48.770;9.154;2023-05-07T07:28:32;17.70;99.90
2024;DHT22;1016;48.770;9.154;2023-05-07T07:30:58;17.90;99.90
2024;DHT22;1016;48.770;9.154;2023-05-07T07:33:23;17.90;99.90
2024;DHT22;1016;48.770;9.154;2023-05-07T07:35:49;18.00;99.90
2024;DHT22;1016;48.770;9.154;2023-05-07T07:38:14;18.10;99.90
2024;DHT22;1016;48.770;9.154;2023-05-07T07:40:40;18.20;99.90
2024;DHT22;1016;48.770;9.154;2023-05-07T07:43:05;18.30;99.90
2024;DHT22;1016;48.770;9.154;2023-05-07T07:45:31;18.50;99.90
2024;DHT22;1016;48.770;9.154;2023-05-07T07:47:57;18.60;99.90
2024;DHT22;1016;48.770;9.154;2023-05-07T07:50:22;18.70;99.90
2024;DHT22;1016;48.770;9.154;2023-05-07T07:52:48;18.80;99.90
2024;DHT22;1016;48.770;9.154;2023-05-07T07:55:14;18.80;99.90
2024;DHT22;1016;48.770;9.154;2023-05-07T07:57:43;18.90;99.90
2024;DHT22;1016;48.770;9.154;2023-05-07T08:00:09;19.00;99.90
2024;DHT22;1016;48.770;9.154;2023-05-07T08:02:34;18.90;99.90
2024;DHT22;1016;48.770;9.154;2023-05-07T08:05:00;19.00;99.90
2024;DHT22;1016;48.770;9.154;2023-05-07T08:07:25;19.10;99.90
2024;DHT22;1016;48.770;9.154;2023-05-07T08:09:51;19.10;99.90
2024;DHT22;1016;48.770;9.154;2023-05-07T08:12:16;19.10;99.90
2024;DHT22;1016;48.770;9.154;2023-05-07T08:14:42;19.10;99.90
2024;DHT22;1016;48.770;9.154;2023-05-07T08:17:07;19.10;99.90
2024;DHT22;1016;48.770;9.154;2023-05-07T08:19:34;19.20;99.90
2024;DHT22;1016;48.770;9.154;2023-05-07T08:22:00;19.40;99.90
2024;DHT22;1016;48.770;9.154;2023-05-07T08:24:26;19.40;99.90
2024;DHT22;1016;48.770;9.154;2023-05-07T08:26:51;19.40;99.90
2024;DHT22;1016;48.770;9.154;2023-05-07T08:29:17;19.50;99.90
2024;DHT22;1016;48.770;9.154;2023-05-07T08:31:42;19.60;99.90
2024;DHT22;1016;48.770;9.154;2023-05-07T08:36:34;19.70;99.90
2024;DHT22;1016;48.770;9.154;2023-05-07T08:38:59;19.70;99.90
2024;DHT22;1016;48.770;9.154;2023-05-07T08:41:25;19.80;99.90
2024;DHT22;1016;48.770;9.154;2023-05-07T08:43:51;19.80;99.90
2024;DHT22;1016;48.770;9.154;2023-05-07T08:46:18;19.80;99.90
2024;DHT22;1016;48.770;9.154;2023-05-07T08:48:50;19.90;99.90
2024;DHT22;1016;48.770;9.154;2023-05-07T08:51:19;20.00;99.90
2024;DHT22;1016;48.770;9.154;2023-05-07T08:53:46;20.10;99.90
2024;DHT22;1016;48.770;9.154;2023-05-07T08:56:14;20.20;99.90
2024;DHT22;1016;48.770;9.154;2023-05-07T08:58:41;20.20;99.90
2024;DHT22;1016;48.770;9.154;2023-05-07T09:01:13;20.30;99.90
2024;DHT22;1016;48.770;9.154;2023-05-07T09:03:39;20.30;99.90
2024;DHT22;1016;48.770;9.154;2023-05-07T09:06:05;20.40;99.90
2024;DHT22;1016;48.770;9.154;2023-05-07T09:08:33;20.50;99.90
2024;DHT22;1016;48.770;9.154;2023-05-07T09:10:59;20.50;99.90
2024;DHT22;1016;48.770;9.154;2023-05-07T09:13:25;20.50;99.90
2024;DHT22;1016;48.770;9.154;2023-05-07T09:15:50;20.50;99.90
2024;DHT22;1016;48.770;9.154;2023-05-07T09:18:16;20.70;99.90
2024;DHT22;1016;48.770;9.154;2023-05-07T09:20:41;20.70;99.90
2024;DHT22;1016;48.770;9.154;2023-05-07T09:23:08;20.80;99.90
2024;DHT22;1016;48.770;9.154;2023-05-07T09:25:34;20.80;99.90
2024;DHT22;1016;48.770;9.154;2023-05-07T09:28:01;20.80;99.90
2024;DHT22;1016;48.770;9.154;2023-05-07T09:30:28;20.90;99.90
2024;DHT22;1016;48.770;9.154;2023-05-07T09:32:54;20.90;99.90
2024;DHT22;1016;48.770;9.154;2023-05-07T09:35:20;21.00;99.90
2024;DHT22;1016;48.770;9.154;2023-05-07T09:37:56;21.00;99.90
2024;DHT22;1016;48.770;9.154;2023-05-07T09:40:23;21.10;99.90
2024;DHT22;1016;48.770;9.154;2023-05-07T09:45:24;21.20;99.90
2024;DHT22;1016;48.770;9.154;2023-05-07T09:47:57;21.30;99.90
2024;DHT22;1016;48.770;9.154;2023-05-07T09:50:30;21.30;99.90
2024;DHT22;1016;48.770;9.154;2023-05-07T09:52:57;21.30;99.90
2024;DHT22;1016;48.770;9.154;2023-05-07T09:55:23;21.30;99.90
2024;DHT22;1016;48.770;9.154;2023-05-07T09:57:53;21.40;99.90
2024;DHT22;1016;48.770;9.154;2023-05-07T10:00:20;21.50;99.90
2024;DHT22;1016;48.770;9.154;2023-05-07T10:02:51;21.50;99.90
2024;DHT22;1016;48.770;9.154;2023-05-07T10:05:21;21.60;99.90
2024;DHT22;1016;48.770;9.154;2023-05-07T10:07:48;21.70;99.90
2024;DHT22;1016;48.770;9.154;2023-05-07T10:10:14;21.70;99.90
2024;DHT22;1016;48.770;9.154;2023-05-07T10:12:41;21.80;99.90
2024;DHT22;1016;48.770;9.154;2023-05-07T10:15:10;21.80;99.90
2024;DHT22;1016;48.770;9.154;2023-05-07T10:17:37;21.90;99.90
2024;DHT22;1016;48.770;9.154;2023-05-07T10:20:04;21.90;99.90
2024;DHT22;1016;48.770;9.154;2023-05-07T10:22:39;22.00;99.90
2024;DHT22;1016;48.770;9.154;2023-05-07T10:25:18;22.00;99.90
2024;DHT22;1016;48.770;9.154;2023-05-07T10:27:44;22.10;99.90
2024;DHT22;1016;48.770;9.154;2023-05-07T10:30:15;22.10;99.90
2024;DHT22;1016;48.770;9.154;2023-05-07T10:32:46;22.20;99.90
2024;DHT22;1016;48.770;9.154;2023-05-07T10:35:26;22.20;99.90
2024;DHT22;1016;48.770;9.154;2023-05-07T10:37:54;22.30;99.90
2024;DHT22;1016;48.770;9.154;2023-05-07T10:40:20;22.40;99.90
2024;DHT22;1016;48.770;9.154;2023-05-07T10:42:56;22.40;99.90
2024;DHT22;1016;48.770;9.154;2023-05-07T10:45:23;22.60;99.90
2024;DHT22;1016;48.770;9.154;2023-05-07T10:50:37;22.60;99.90
2024;DHT22;1016;48.770;9.154;2023-05-07T10:55:51;22.70;99.90
2024;DHT22;1016;48.770;9.154;2023-05-07T10:58:27;22.70;99.90
2024;DHT22;1016;48.770;9.154;2023-05-07T11:01:02;22.80;99.90
2024;DHT22;1016;48.770;9.154;2023-05-07T11:03:28;22.90;99.90
2024;DHT22;1016;48.770;9.154;2023-05-07T11:06:14;22.90;99.90
2024;DHT22;1016;48.770;9.154;2023-05-07T11:11:19;23.00;99.90
2024;DHT22;1016;48.770;9.154;2023-05-07T11:13:46;22.90;99.90
2024;DHT22;1016;48.770;9.154;2023-05-07T11:16:19;23.00;99.90
2024;DHT22;1016;48.770;9.154;2023-05-07T11:18:47;22.90;99.90
2024;DHT22;1016;48.770;9.154;2023-05-07T11:21:14;22.80;99.90
2024;DHT22;1016;48.770;9.154;2023-05-07T11:23:57;22.80;99.90
2024;DHT22;1016;48.770;9.154;2023-05-07T11:26:23;22.70;99.90
2024;DHT22;1016;48.770;9.154;2023-05-07T11:28:49;22.80;99.90
2024;DHT22;1016;48.770;9.154;2023-05-07T11:31:21;22.70;99.90
2024;DHT22;1016;48.770;9.154;2023-05-07T11:33:47;22.70;99.90
2024;DHT22;1016;48.770;9.154;2023-05-07T11:36:13;22.60;99.90
2024;DHT22;1016;48.770;9.154;2023-05-07T11:38:39;22.60;99.90
2024;DHT22;1016;48.770;9.154;2023-05-07T11:41:04;22.60;99.90
2024;DHT22;1016;48.770;9.154;2023-05-07T11:43:31;22.50;99.90
2024;DHT22;1016;48.770;9.154;2023-05-07T11:46:06;22.60;99.90
2024;DHT22;1016;48.770;9.154;2023-05-07T11:48:33;22.50;99.90
2024;DHT22;1016;48.770;9.154;2023-05-07T11:53:34;22.30;99.90
2024;DHT22;1016;48.770;9.154;2023-05-07T11:56:01;22.20;99.90
2024;DHT22;1016;48.770;9.154;2023-05-07T11:58:31;22.10;99.90
2024;DHT22;1016;48.770;9.154;2023-05-07T12:00:56;22.10;99.90
2024;DHT22;1016;48.770;9.154;2023-05-07T12:03:22;22.00;99.90
2024;DHT22;1016;48.770;9.154;2023-05-07T12:05:48;21.90;99.90
2024;DHT22;1016;48.770;9.154;2023-05-07T12:08:21;21.80;99.90
2024;DHT22;1016;48.770;9.154;2023-05-07T12:10:48;21.60;99.90
2024;DHT22;1016;48.770;9.154;2023-05-07T12:13:18;21.40;99.90
2024;DHT22;1016;48.770;9.154;2023-05-07T12:15:44;21.20;99.90
2024;DHT22;1016;48.770;9.154;2023-05-07T12:18:11;21.10;99.90
2024;DHT22;1016;48.770;9.154;2023-05-07T12:20:37;20.80;99.90
2024;DHT22;1016;48.770;9.154;2023-05-07T12:23:03;20.50;99.90
2024;DHT22;1016;48.770;9.154;2023-05-07T12:25:36;20.20;99.90
2024;DHT22;1016;48.770;9.154;2023-05-07T12:28:03;19.90;99.90
2024;DHT22;1016;48.770;9.154;2023-05-07T12:30:31;19.70;99.90
2024;DHT22;1016;48.770;9.154;2023-05-07T12:32:56;19.50;99.90
2024;DHT22;1016;48.770;9.154;2023-05-07T12:35:41;19.40;99.90
2024;DHT22;1016;48.770;9.154;2023-05-07T12:38:08;19.30;99.90
2024;DHT22;1016;48.770;9.154;2023-05-07T12:40:45;19.10;99.90
2024;DHT22;1016;48.770;9.154;2023-05-07T12:43:18;19.00;99.90
2024;DHT22;1016;48.770;9.154;2023-05-07T12:45:45;18.80;99.90
2024;DHT22;1016;48.770;9.154;2023-05-07T12:48:12;18.70;99.90
2024;DHT22;1016;48.770;9.154;2023-05-07T12:50:37;18.60;99.90
2024;DHT22;1016;48.770;9.154;2023-05-07T12:53:04;18.20;99.90
2024;DHT22;1016;48.770;9.154;2023-05-07T12:55:31;18.00;99.90
2024;DHT22;1016;48.770;9.154;2023-05-07T12:58:00;17.80;99.90
2024;DHT22;1016;48.770;9.154;2023-05-07T13:00:37;17.70;99.90
2024;DHT22;1016;48.770;9.154;2023-05-07T13:03:03;17.50;99.90
2024;DHT22;1016;48.770;9.154;2023-05-07T13:05:28;17.40;99.90
2024;DHT22;1016;48.770;9.154;2023-05-07T13:07:55;17.30;99.90
2024;DHT22;1016;48.770;9.154;2023-05-07T13:10:22;17.20;99.90
2024;DHT22;1016;48.770;9.154;2023-05-07T13:12:47;17.10;99.90
2024;DHT22;1016;48.770;9.154;2023-05-07T13:15:13;17.20;99.90
2024;DHT22;1016;48.770;9.154;2023-05-07T13:17:38;17.20;99.90
2024;DHT22;1016;48.770;9.154;2023-05-07T13:20:04;17.10;99.90
2024;DHT22;1016;48.770;9.154;2023-05-07T13:22:31;17.10;99.90
2024;DHT22;1016;48.770;9.154;2023-05-07T13:24:57;17.10;99.90
2024;DHT22;1016;48.770;9.154;2023-05-07T13:27:22;17.10;99.90
2024;DHT22;1016;48.770;9.154;2023-05-07T13:29:48;17.10;99.90
2024;DHT22;1016;48.770;9.154;2023-05-07T13:32:13;17.00;99.90
2024;DHT22;1016;48.770;9.154;2023-05-07T13:34:39;17.00;99.90
2024;DHT22;1016;48.770;9.154;2023-05-07T13:37:04;17.00;99.90
2024;DHT22;1016;48.770;9.154;2023-05-07T13:39:30;17.00;99.90
2024;DHT22;1016;48.770;9.154;2023-05-07T13:41:55;17.00;99.90
2024;DHT22;1016;48.770;9.154;2023-05-07T13:44:21;17.00;99.90
2024;DHT22;1016;48.770;9.154;2023-05-07T13:46:46;17.00;99.90
2024;DHT22;1016;48.770;9.154;2023-05-07T13:49:12;17.00;99.90
2024;DHT22;1016;48.770;9.154;2023-05-07T13:51:38;17.00;99.90
2024;DHT22;1016;48.770;9.154;2023-05-07T13:54:03;16.90;99.90
2024;DHT22;1016;48.770;9.154;2023-05-07T13:56:29;16.90;99.90
2024;DHT22;1016;48.770;9.154;2023-05-07T13:58:57;16.90;99.90
2024;DHT22;1016;48.770;9.154;2023-05-07T14:01:23;16.90;99.90
2024;DHT22;1016;48.770;9.154;2023-05-07T14:03:48;16.90;99.90
2024;DHT22;1016;48.770;9.154;2023-05-07T14:06:14;16.90;99.90
2024;DHT22;1016;48.770;9.154;2023-05-07T14:08:39;16.90;99.90
2024;DHT22;1016;48.770;9.154;2023-05-07T14:11:05;16.90;99.90
2024;DHT22;1016;48.770;9.154;2023-05-07T14:13:31;16.90;99.90
2024;DHT22;1016;48.770;9.154;2023-05-07T14:15:57;16.90;99.90
2024;DHT22;1016;48.770;9.154;2023-05-07T14:18:22;17.00;99.90
2024;DHT22;1016;48.770;9.154;2023-05-07T14:20:48;17.00;99.90
2024;DHT22;1016;48.770;9.154;2023-05-07T14:23:14;17.00;99.90
2024;DHT22;1016;48.770;9.154;2023-05-07T14:25:40;17.10;99.90
2024;DHT22;1016;48.770;9.154;2023-05-07T14:28:06;17.10;99.90
2024;DHT22;1016;48.770;9.154;2023-05-07T14:30:31;17.10;99.90
2024;DHT22;1016;48.770;9.154;2023-05-07T14:32:57;17.20;99.90
2024;DHT22;1016;48.770;9.154;2023-05-07T14:35:23;17.20;99.90
2024;DHT22;1016;48.770;9.154;2023-05-07T14:37:48;17.20;99.90
2024;DHT22;1016;48.770;9.154;2023-05-07T14:40:14;17.10;99.90
2024;DHT22;1016;48.770;9.154;2023-05-07T14:42:40;17.10;99.90
2024;DHT22;1016;48.770;9.154;2023-05-07T14:45:06;17.20;99.90
2024;DHT22;1016;48.770;9.154;2023-05-07T14:47:31;17.20;99.90
2024;DHT22;1016;48.770;9.154;2023-05-07T14:49:57;17.10;99.90
2024;DHT22;1016;48.770;9.154;2023-05-07T14:52:23;17.10;99.90
2024;DHT22;1016;48.770;9.154;2023-05-07T14:54:49;17.10;99.90
2024;DHT22;1016;48.770;9.154;2023-05-07T14:57:14;17.10;99.90
2024;DHT22;1016;48.770;9.154;2023-05-07T14:59:41;17.10;99.90
2024;DHT22;1016;48.770;9.154;2023-05-07T15:02:08;17.10;99.90
2024;DHT22;1016;48.770;9.154;2023-05-07T15:04:34;17.10;99.90
2024;DHT22;1016;48.770;9.154;2023-05-07T15:07:00;17.10;99.90
2024;DHT22;1016;48.770;9.154;2023-05-07T15:09:26;17.10;99.90
2024;DHT22;1016;48.770;9.154;2023-05-07T15:11:51;17.10;99.90
2024;DHT22;1016;48.770;9.154;2023-05-07T15:14:17;17.10;99.90
2024;DHT22;1016;48.770;9.154;2023-05-07T15:16:43;17.10;99.90
2024;DHT22;1016;48.770;9.154;2023-05-07T15:19:08;17.10;99.90
2024;DHT22;1016;48.770;9.154;2023-05-07T15:21:34;17.10;99.90
2024;DHT22;1016;48.770;9.154;2023-05-07T15:24:01;17.10;99.90
2024;DHT22;1016;48.770;9.154;2023-05-07T15:26:26;17.10;99.90
2024;DHT22;1016;48.770;9.154;2023-05-07T15:28:52;17.10;99.90
2024;DHT22;1016;48.770;9.154;2023-05-07T15:31:17;17.10;99.90
2024;DHT22;1016;48.770;9.154;2023-05-07T15:33:43;17.10;99.90
2024;DHT22;1016;48.770;9.154;2023-05-07T15:36:10;17.20;99.90
2024;DHT22;1016;48.770;9.154;2023-05-07T15:38:36;17.20;99.90
2024;DHT22;1016;48.770;9.154;2023-05-07T15:41:01;17.20;99.90
2024;DHT22;1016;48.770;9.154;2023-05-07T15:43:27;17.20;99.90
2024;DHT22;1016;48.770;9.154;2023-05-07T15:45:52;17.30;99.90
2024;DHT22;1016;48.770;9.154;2023-05-07T15:48:18;17.30;99.90
2024;DHT22;1016;48.770;9.154;2023-05-07T15:50:44;17.30;99.90
2024;DHT22;1016;48.770;9.154;2023-05-07T15:53:10;17.30;99.90
2024;DHT22;1016;48.770;9.154;2023-05-07T15:55:38;17.30;99.90
2024;DHT22;1016;48.770;9.154;2023-05-07T15:58:03;17.30;99.90
2024;DHT22;1016;48.770;9.154;2023-05-07T16:00:31;17.30;99.90
2024;DHT22;1016;48.770;9.154;2023-05-07T16:02:56;17.30;99.90
2024;DHT22;1016;48.770;9.154;2023-05-07T16:05:22;17.30;99.90
2024;DHT22;1016;48.770;9.154;2023-05-07T16:07:48;17.30;99.90
2024;DHT22;1016;48.770;9.154;2023-05-07T16:10:14;17.30;99.90
2024;DHT22;1016;48.770;9.154;2023-05-07T16:12:40;17.30;99.90